sensor_id;sensor_type;location;lat;lon;timestamp;P1;durP1;ratioP1;P2;durP2;ratioP2
19566;SDS011;9930;49.240;8.548;2023-07-31T00:01:48;2.47;;;1.40;;
19566;SDS011;9930;49.240;8.548;2023-07-31T00:04:15;2.35;;;1.60;;
19566;SDS011;9930;49.240;8.548;2023-07-31T00:06:44;1.95;;;1.52;;
19566;SDS011;9930;49.240;8.548;2023-07-31T00:09:11;1.67;;;1.25;;
19566;SDS011;9930;49.240;8.548;2023-07-31T00:11:46;2.42;;;1.45;;
19566;SDS011;9930;49.240;8.548;2023-07-31T00:14:17;2.35;;;1.50;;
19566;SDS011;9930;49.240;8.548;2023-07-31T00:16:45;1.95;;;1.40;;
19566;SDS011;9930;49.240;8.548;2023-07-31T00:19:15;1.50;;;1.30;;
19566;SDS011;9930;49.240;8.548;2023-07-31T00:21:41;1.65;;;1.48;;
19566;SDS011;9930;49.240;8.548;2023-07-31T00:24:11;1.92;;;1.25;;
19566;SDS011;9930;49.240;8.548;2023-07-31T00:26:36;2.67;;;1.60;;
19566;SDS011;9930;49.240;8.548;2023-07-31T00:29:05;1.70;;;1.60;;
19566;SDS011;9930;49.240;8.548;2023-07-31T00:31:30;2.65;;;1.40;;
19566;SDS011;9930;49.240;8.548;2023-07-31T00:33:56;1.45;;;1.23;;
19566;SDS011;9930;49.240;8.548;2023-07-31T00:36:24;2.65;;;1.70;;
19566;SDS011;9930;49.240;8.548;2023-07-31T00:38:49;2.67;;;1.60;;
19566;SDS011;9930;49.240;8.548;2023-07-31T00:41:15;2.50;;;1.77;;
19566;SDS011;9930;49.240;8.548;2023-07-31T00:43:43;1.65;;;1.55;;
19566;SDS011;9930;49.240;8.548;2023-07-31T00:46:11;2.58;;;1.83;;
19566;SDS011;9930;49.240;8.548;2023-07-31T00:48:40;2.22;;;1.58;;
19566;SDS011;9930;49.240;8.548;2023-07-31T00:51:07;2.53;;;1.63;;
19566;SDS011;9930;49.240;8.548;2023-07-31T00:53:36;3.13;;;1.58;;
19566;SDS011;9930;49.240;8.548;2023-07-31T00:56:03;1.60;;;1.50;;
19566;SDS011;9930;49.240;8.548;2023-07-31T00:58:31;2.67;;;2.05;;
19566;SDS011;9930;49.240;8.548;2023-07-31T01:01:02;1.60;;;1.45;;
19566;SDS011;9930;49.240;8.548;2023-07-31T01:03:29;3.47;;;1.52;;
19566;SDS011;9930;49.240;8.548;2023-07-31T01:11:30;2.30;;;1.45;;
19566;SDS011;9930;49.240;8.548;2023-07-31T01:14:08;1.90;;;1.67;;
19566;SDS011;9930;49.240;8.548;2023-07-31T01:16:34;1.75;;;1.33;;
19566;SDS011;9930;49.240;8.548;2023-07-31T01:19:02;2.33;;;1.60;;
19566;SDS011;9930;49.240;8.548;2023-07-31T01:33:08;2.15;;;1.60;;
19566;SDS011;9930;49.240;8.548;2023-07-31T01:35:35;1.83;;;1.58;;
19566;SDS011;9930;49.240;8.548;2023-07-31T01:38:02;1.50;;;1.40;;
19566;SDS011;9930;49.240;8.548;2023-07-31T01:40:30;2.30;;;1.85;;
19566;SDS011;9930;49.240;8.548;2023-07-31T01:42:58;2.05;;;1.50;;
19566;SDS011;9930;49.240;8.548;2023-07-31T01:45:24;3.22;;;1.90;;
19566;SDS011;9930;49.240;8.548;2023-07-31T01:47:49;1.52;;;1.42;;
19566;SDS011;9930;49.240;8.548;2023-07-31T01:50:15;2.13;;;1.50;;
19566;SDS011;9930;49.240;8.548;2023-07-31T01:52:41;2.35;;;1.60;;
19566;SDS011;9930;49.240;8.548;2023-07-31T01:55:10;2.22;;;1.40;;
19566;SDS011;9930;49.240;8.548;2023-07-31T01:57:36;2.78;;;1.80;;
19566;SDS011;9930;49.240;8.548;2023-07-31T02:00:04;2.60;;;1.70;;
19566;SDS011;9930;49.240;8.548;2023-07-31T02:02:31;2.13;;;1.55;;
19566;SDS011;9930;49.240;8.548;2023-07-31T02:04:56;3.10;;;1.90;;
19566;SDS011;9930;49.240;8.548;2023-07-31T02:07:24;2.05;;;1.60;;
19566;SDS011;9930;49.240;8.548;2023-07-31T02:09:50;3.08;;;1.83;;
19566;SDS011;9930;49.240;8.548;2023-07-31T02:12:16;2.85;;;1.80;;
19566;SDS011;9930;49.240;8.548;2023-07-31T02:14:42;2.47;;;1.40;;
19566;SDS011;9930;49.240;8.548;2023-07-31T02:17:08;2.88;;;1.58;;
19566;SDS011;9930;49.240;8.548;2023-07-31T02:19:34;1.70;;;1.48;;
19566;SDS011;9930;49.240;8.548;2023-07-31T02:22:04;2.20;;;1.52;;
19566;SDS011;9930;49.240;8.548;2023-07-31T02:24:30;1.55;;;1.45;;
19566;SDS011;9930;49.240;8.548;2023-07-31T02:26:56;2.03;;;1.63;;
19566;SDS011;9930;49.240;8.548;2023-07-31T02:29:25;3.20;;;1.90;;
19566;SDS011;9930;49.240;8.548;2023-07-31T02:31:53;2.17;;;1.80;;
19566;SDS011;9930;49.240;8.548;2023-07-31T02:34:18;2.40;;;1.63;;
19566;SDS011;9930;49.240;8.548;2023-07-31T02:36:46;2.10;;;1.70;;
19566;SDS011;9930;49.240;8.548;2023-07-31T02:39:14;1.92;;;1.70;;
19566;SDS011;9930;49.240;8.548;2023-07-31T02:41:40;2.60;;;1.70;;
19566;SDS011;9930;49.240;8.548;2023-07-31T02:44:08;1.73;;;1.50;;
19566;SDS011;9930;49.240;8.548;2023-07-31T02:46:37;1.58;;;1.48;;
19566;SDS011;9930;49.240;8.548;2023-07-31T02:49:11;3.10;;;1.83;;
19566;SDS011;9930;49.240;8.548;2023-07-31T02:51:41;1.92;;;1.73;;
19566;SDS011;9930;49.240;8.548;2023-07-31T02:54:06;2.38;;;1.60;;
19566;SDS011;9930;49.240;8.548;2023-07-31T02:56:32;2.45;;;1.90;;
19566;SDS011;9930;49.240;8.548;2023-07-31T02:58:58;2.00;;;1.80;;
19566;SDS011;9930;49.240;8.548;2023-07-31T03:01:23;2.33;;;1.60;;
19566;SDS011;9930;49.240;8.548;2023-07-31T03:03:49;2.83;;;1.80;;
19566;SDS011;9930;49.240;8.548;2023-07-31T03:06:15;2.00;;;1.70;;
19566;SDS011;9930;49.240;8.548;2023-07-31T03:08:40;2.10;;;1.70;;
19566;SDS011;9930;49.240;8.548;2023-07-31T03:11:08;3.30;;;2.00;;
19566;SDS011;9930;49.240;8.548;2023-07-31T03:13:34;2.00;;;1.80;;
19566;SDS011;9930;49.240;8.548;2023-07-31T03:16:02;2.38;;;1.92;;
19566;SDS011;9930;49.240;8.548;2023-07-31T03:18:28;1.98;;;1.55;;
19566;SDS011;9930;49.240;8.548;2023-07-31T03:20:56;2.40;;;1.85;;
19566;SDS011;9930;49.240;8.548;2023-07-31T03:23:24;3.10;;;1.83;;
19566;SDS011;9930;49.240;8.548;2023-07-31T03:25:55;2.67;;;1.80;;
19566;SDS011;9930;49.240;8.548;2023-07-31T03:28:29;2.45;;;1.63;;
19566;SDS011;9930;49.240;8.548;2023-07-31T03:30:57;2.92;;;1.88;;
19566;SDS011;9930;49.240;8.548;2023-07-31T03:33:23;2.25;;;1.77;;
19566;SDS011;9930;49.240;8.548;2023-07-31T03:35:48;2.45;;;2.10;;
19566;SDS011;9930;49.240;8.548;2023-07-31T03:38:14;2.92;;;1.98;;
19566;SDS011;9930;49.240;8.548;2023-07-31T03:40:40;2.08;;;1.67;;
19566;SDS011;9930;49.240;8.548;2023-07-31T03:43:11;1.80;;;1.63;;
19566;SDS011;9930;49.240;8.548;2023-07-31T03:45:38;2.55;;;1.60;;
19566;SDS011;9930;49.240;8.548;2023-07-31T03:48:04;1.75;;;1.63;;
19566;SDS011;9930;49.240;8.548;2023-07-31T03:50:30;1.70;;;1.55;;
19566;SDS011;9930;49.240;8.548;2023-07-31T03:52:56;3.33;;;1.90;;
19566;SDS011;9930;49.240;8.548;2023-07-31T03:55:24;2.95;;;1.90;;
19566;SDS011;9930;49.240;8.548;2023-07-31T03:57:51;2.97;;;2.60;;
19566;SDS011;9930;49.240;8.548;2023-07-31T04:00:22;2.25;;;1.90;;
19566;SDS011;9930;49.240;8.548;2023-07-31T04:02:48;2.90;;;2.60;;
19566;SDS011;9930;49.240;8.548;2023-07-31T04:05:16;2.28;;;2.00;;
19566;SDS011;9930;49.240;8.548;2023-07-31T04:07:41;2.10;;;1.80;;
19566;SDS011;9930;49.240;8.548;2023-07-31T04:10:08;3.45;;;2.33;;
19566;SDS011;9930;49.240;8.548;2023-07-31T04:12:34;2.47;;;1.83;;
19566;SDS011;9930;49.240;8.548;2023-07-31T04:15:00;2.47;;;2.08;;
19566;SDS011;9930;49.240;8.548;2023-07-31T04:17:26;2.60;;;2.10;;
19566;SDS011;9930;49.240;8.548;2023-07-31T04:19:54;2.13;;;1.77;;
19566;SDS011;9930;49.240;8.548;2023-07-31T04:22:20;2.08;;;1.88;;
19566;SDS011;9930;49.240;8.548;2023-07-31T04:24:50;2.65;;;1.95;;
19566;SDS011;9930;49.240;8.548;2023-07-31T04:27:16;2.58;;;2.00;;
19566;SDS011;9930;49.240;8.548;2023-07-31T04:29:44;2.20;;;1.80;;
19566;SDS011;9930;49.240;8.548;2023-07-31T04:32:11;2.97;;;2.53;;
19566;SDS011;9930;49.240;8.548;2023-07-31T04:34:41;2.00;;;1.80;;
19566;SDS011;9930;49.240;8.548;2023-07-31T04:37:09;3.08;;;1.92;;
19566;SDS011;9930;49.240;8.548;2023-07-31T04:39:35;3.45;;;1.90;;
19566;SDS011;9930;49.240;8.548;2023-07-31T04:42:04;2.67;;;1.90;;
19566;SDS011;9930;49.240;8.548;2023-07-31T04:44:30;2.03;;;1.77;;
19566;SDS011;9930;49.240;8.548;2023-07-31T04:46:58;2.40;;;2.00;;
19566;SDS011;9930;49.240;8.548;2023-07-31T04:49:28;3.40;;;2.10;;
19566;SDS011;9930;49.240;8.548;2023-07-31T04:51:57;2.15;;;1.80;;
19566;SDS011;9930;49.240;8.548;2023-07-31T04:54:23;3.00;;;1.58;;
19566;SDS011;9930;49.240;8.548;2023-07-31T04:56:49;2.30;;;1.80;;
19566;SDS011;9930;49.240;8.548;2023-07-31T04:59:14;3.50;;;2.00;;
19566;SDS011;9930;49.240;8.548;2023-07-31T05:01:42;2.25;;;1.75;;
19566;SDS011;9930;49.240;8.548;2023-07-31T05:04:12;2.53;;;1.90;;
19566;SDS011;9930;49.240;8.548;2023-07-31T05:06:39;2.67;;;2.03;;
19566;SDS011;9930;49.240;8.548;2023-07-31T05:09:06;3.00;;;1.90;;
19566;SDS011;9930;49.240;8.548;2023-07-31T05:11:34;2.10;;;1.90;;
19566;SDS011;9930;49.240;8.548;2023-07-31T05:14:00;1.92;;;1.60;;
19566;SDS011;9930;49.240;8.548;2023-07-31T05:16:26;2.20;;;1.77;;
19566;SDS011;9930;49.240;8.548;2023-07-31T05:18:56;1.65;;;1.55;;
19566;SDS011;9930;49.240;8.548;2023-07-31T05:21:24;2.22;;;1.75;;
19566;SDS011;9930;49.240;8.548;2023-07-31T05:23:55;2.13;;;1.70;;
19566;SDS011;9930;49.240;8.548;2023-07-31T05:26:21;3.22;;;2.13;;
19566;SDS011;9930;49.240;8.548;2023-07-31T05:28:48;2.40;;;1.67;;
19566;SDS011;9930;49.240;8.548;2023-07-31T05:31:16;2.22;;;1.60;;
19566;SDS011;9930;49.240;8.548;2023-07-31T05:33:45;3.20;;;2.05;;
19566;SDS011;9930;49.240;8.548;2023-07-31T05:36:15;3.88;;;1.90;;
19566;SDS011;9930;49.240;8.548;2023-07-31T05:38:41;6.63;;;1.80;;
19566;SDS011;9930;49.240;8.548;2023-07-31T05:41:14;2.60;;;1.95;;
19566;SDS011;9930;49.240;8.548;2023-07-31T05:43:39;3.40;;;1.70;;
19566;SDS011;9930;49.240;8.548;2023-07-31T05:46:06;2.78;;;1.95;;
19566;SDS011;9930;49.240;8.548;2023-07-31T05:48:32;2.90;;;2.42;;
19566;SDS011;9930;49.240;8.548;2023-07-31T05:51:00;2.15;;;1.75;;
19566;SDS011;9930;49.240;8.548;2023-07-31T05:53:28;2.53;;;1.98;;
19566;SDS011;9930;49.240;8.548;2023-07-31T05:55:54;2.65;;;1.70;;
19566;SDS011;9930;49.240;8.548;2023-07-31T05:58:22;2.78;;;1.90;;
19566;SDS011;9930;49.240;8.548;2023-07-31T06:00:50;2.28;;;1.67;;
19566;SDS011;9930;49.240;8.548;2023-07-31T06:03:16;2.65;;;2.00;;
19566;SDS011;9930;49.240;8.548;2023-07-31T06:05:42;3.92;;;1.80;;
19566;SDS011;9930;49.240;8.548;2023-07-31T06:08:08;2.78;;;2.10;;
19566;SDS011;9930;49.240;8.548;2023-07-31T06:10:39;2.85;;;1.90;;
19566;SDS011;9930;49.240;8.548;2023-07-31T06:13:04;2.22;;;1.65;;
19566;SDS011;9930;49.240;8.548;2023-07-31T06:15:33;2.00;;;1.85;;
19566;SDS011;9930;49.240;8.548;2023-07-31T06:17:59;5.82;;;1.90;;
19566;SDS011;9930;49.240;8.548;2023-07-31T06:20:26;2.10;;;1.90;;
19566;SDS011;9930;49.240;8.548;2023-07-31T06:22:53;2.67;;;1.80;;
19566;SDS011;9930;49.240;8.548;2023-07-31T06:25:26;3.05;;;1.85;;
19566;SDS011;9930;49.240;8.548;2023-07-31T06:27:51;2.28;;;2.03;;
19566;SDS011;9930;49.240;8.548;2023-07-31T06:30:17;2.08;;;1.88;;
19566;SDS011;9930;49.240;8.548;2023-07-31T06:32:43;3.70;;;2.00;;
19566;SDS011;9930;49.240;8.548;2023-07-31T06:35:12;2.40;;;1.90;;
19566;SDS011;9930;49.240;8.548;2023-07-31T06:37:38;3.40;;;2.08;;
19566;SDS011;9930;49.240;8.548;2023-07-31T06:40:09;2.92;;;2.17;;
19566;SDS011;9930;49.240;8.548;2023-07-31T06:42:44;2.38;;;1.75;;
19566;SDS011;9930;49.240;8.548;2023-07-31T06:45:12;2.00;;;1.90;;
19566;SDS011;9930;49.240;8.548;2023-07-31T06:47:41;2.00;;;1.70;;
19566;SDS011;9930;49.240;8.548;2023-07-31T06:50:12;2.30;;;1.77;;
19566;SDS011;9930;49.240;8.548;2023-07-31T06:52:41;3.97;;;1.98;;
19566;SDS011;9930;49.240;8.548;2023-07-31T06:55:16;3.05;;;2.13;;
19566;SDS011;9930;49.240;8.548;2023-07-31T06:57:45;2.42;;;1.90;;
19566;SDS011;9930;49.240;8.548;2023-07-31T07:00:20;3.17;;;1.80;;
19566;SDS011;9930;49.240;8.548;2023-07-31T07:02:48;2.80;;;1.90;;
19566;SDS011;9930;49.240;8.548;2023-07-31T07:05:17;2.58;;;1.83;;
19566;SDS011;9930;49.240;8.548;2023-07-31T07:07:45;2.20;;;1.80;;
19566;SDS011;9930;49.240;8.548;2023-07-31T07:10:11;2.22;;;1.73;;
19566;SDS011;9930;49.240;8.548;2023-07-31T07:12:37;2.97;;;1.70;;
19566;SDS011;9930;49.240;8.548;2023-07-31T07:15:05;3.65;;;1.92;;
19566;SDS011;9930;49.240;8.548;2023-07-31T07:17:33;3.40;;;2.03;;
19566;SDS011;9930;49.240;8.548;2023-07-31T07:19:59;3.03;;;2.03;;
19566;SDS011;9930;49.240;8.548;2023-07-31T07:22:26;2.95;;;1.98;;
19566;SDS011;9930;49.240;8.548;2023-07-31T07:24:52;2.20;;;1.67;;
19566;SDS011;9930;49.240;8.548;2023-07-31T07:27:24;2.40;;;1.75;;
19566;SDS011;9930;49.240;8.548;2023-07-31T07:29:50;2.40;;;2.10;;
19566;SDS011;9930;49.240;8.548;2023-07-31T07:32:17;2.95;;;1.77;;
19566;SDS011;9930;49.240;8.548;2023-07-31T07:34:46;2.25;;;1.73;;
19566;SDS011;9930;49.240;8.548;2023-07-31T07:37:13;2.05;;;1.77;;
19566;SDS011;9930;49.240;8.548;2023-07-31T07:39:44;1.80;;;1.67;;
19566;SDS011;9930;49.240;8.548;2023-07-31T07:42:11;1.77;;;1.60;;
19566;SDS011;9930;49.240;8.548;2023-07-31T07:44:37;2.35;;;1.70;;
19566;SDS011;9930;49.240;8.548;2023-07-31T07:47:03;2.28;;;1.85;;
19566;SDS011;9930;49.240;8.548;2023-07-31T07:49:31;2.63;;;1.92;;
19566;SDS011;9930;49.240;8.548;2023-07-31T07:51:57;3.05;;;2.00;;
19566;SDS011;9930;49.240;8.548;2023-07-31T07:54:23;1.77;;;1.67;;
19566;SDS011;9930;49.240;8.548;2023-07-31T07:56:49;2.03;;;1.80;;
19566;SDS011;9930;49.240;8.548;2023-07-31T07:59:14;3.50;;;1.92;;
19566;SDS011;9930;49.240;8.548;2023-07-31T08:01:44;2.78;;;1.98;;
19566;SDS011;9930;49.240;8.548;2023-07-31T08:04:10;3.10;;;1.80;;
19566;SDS011;9930;49.240;8.548;2023-07-31T08:06:35;2.35;;;1.70;;
19566;SDS011;9930;49.240;8.548;2023-07-31T08:09:03;2.03;;;1.80;;
19566;SDS011;9930;49.240;8.548;2023-07-31T08:11:32;4.00;;;1.75;;
19566;SDS011;9930;49.240;8.548;2023-07-31T08:13:58;2.55;;;1.90;;
19566;SDS011;9930;49.240;8.548;2023-07-31T08:16:26;2.58;;;1.77;;
19566;SDS011;9930;49.240;8.548;2023-07-31T08:18:54;2.33;;;1.70;;
19566;SDS011;9930;49.240;8.548;2023-07-31T08:21:20;2.72;;;1.90;;
19566;SDS011;9930;49.240;8.548;2023-07-31T08:23:51;3.58;;;1.70;;
19566;SDS011;9930;49.240;8.548;2023-07-31T08:26:17;3.22;;;2.20;;
19566;SDS011;9930;49.240;8.548;2023-07-31T08:28:44;3.15;;;1.75;;
19566;SDS011;9930;49.240;8.548;2023-07-31T08:31:14;1.88;;;1.73;;
19566;SDS011;9930;49.240;8.548;2023-07-31T08:33:40;2.78;;;2.10;;
19566;SDS011;9930;49.240;8.548;2023-07-31T08:36:11;2.95;;;1.80;;
19566;SDS011;9930;49.240;8.548;2023-07-31T08:38:37;2.42;;;1.90;;
19566;SDS011;9930;49.240;8.548;2023-07-31T08:41:03;3.60;;;1.85;;
19566;SDS011;9930;49.240;8.548;2023-07-31T08:43:29;2.10;;;1.80;;
19566;SDS011;9930;49.240;8.548;2023-07-31T08:45:56;3.30;;;2.00;;
19566;SDS011;9930;49.240;8.548;2023-07-31T08:48:22;3.28;;;2.22;;
19566;SDS011;9930;49.240;8.548;2023-07-31T08:50:54;2.42;;;2.05;;
19566;SDS011;9930;49.240;8.548;2023-07-31T08:53:22;2.33;;;1.90;;
19566;SDS011;9930;49.240;8.548;2023-07-31T08:55:48;3.47;;;1.92;;
19566;SDS011;9930;49.240;8.548;2023-07-31T08:58:17;2.25;;;1.63;;
19566;SDS011;9930;49.240;8.548;2023-07-31T09:00:49;2.42;;;2.22;;
19566;SDS011;9930;49.240;8.548;2023-07-31T09:03:18;1.92;;;1.73;;
19566;SDS011;9930;49.240;8.548;2023-07-31T09:05:47;3.33;;;2.28;;
19566;SDS011;9930;49.240;8.548;2023-07-31T09:08:20;2.50;;;1.90;;
19566;SDS011;9930;49.240;8.548;2023-07-31T09:10:47;3.08;;;2.05;;
19566;SDS011;9930;49.240;8.548;2023-07-31T09:13:18;3.72;;;2.17;;
19566;SDS011;9930;49.240;8.548;2023-07-31T09:15:46;2.38;;;2.00;;
19566;SDS011;9930;49.240;8.548;2023-07-31T09:18:12;3.47;;;2.20;;
19566;SDS011;9930;49.240;8.548;2023-07-31T09:20:44;3.17;;;2.33;;
19566;SDS011;9930;49.240;8.548;2023-07-31T09:23:11;2.58;;;1.88;;
19566;SDS011;9930;49.240;8.548;2023-07-31T09:25:43;7.28;;;2.60;;
19566;SDS011;9930;49.240;8.548;2023-07-31T09:28:13;3.53;;;2.30;;
19566;SDS011;9930;49.240;8.548;2023-07-31T09:30:45;3.33;;;2.40;;
19566;SDS011;9930;49.240;8.548;2023-07-31T09:33:18;3.55;;;2.28;;
19566;SDS011;9930;49.240;8.548;2023-07-31T09:35:45;2.00;;;1.70;;
19566;SDS011;9930;49.240;8.548;2023-07-31T09:38:14;2.40;;;1.95;;
19566;SDS011;9930;49.240;8.548;2023-07-31T09:40:42;3.42;;;2.03;;
19566;SDS011;9930;49.240;8.548;2023-07-31T09:43:13;3.83;;;2.50;;
19566;SDS011;9930;49.240;8.548;2023-07-31T09:45:46;4.57;;;2.80;;
19566;SDS011;9930;49.240;8.548;2023-07-31T09:48:22;2.13;;;1.90;;
19566;SDS011;9930;49.240;8.548;2023-07-31T09:50:52;2.88;;;2.05;;
19566;SDS011;9930;49.240;8.548;2023-07-31T09:53:27;2.88;;;2.25;;
19566;SDS011;9930;49.240;8.548;2023-07-31T09:56:00;4.28;;;2.40;;
19566;SDS011;9930;49.240;8.548;2023-07-31T09:58:27;2.80;;;2.13;;
19566;SDS011;9930;49.240;8.548;2023-07-31T10:00:59;3.17;;;2.35;;
19566;SDS011;9930;49.240;8.548;2023-07-31T10:03:27;2.67;;;2.10;;
19566;SDS011;9930;49.240;8.548;2023-07-31T10:05:55;3.08;;;2.10;;
19566;SDS011;9930;49.240;8.548;2023-07-31T10:08:29;3.17;;;2.17;;
19566;SDS011;9930;49.240;8.548;2023-07-31T10:11:01;3.08;;;2.20;;
19566;SDS011;9930;49.240;8.548;2023-07-31T10:13:33;3.00;;;2.25;;
19566;SDS011;9930;49.240;8.548;2023-07-31T10:16:00;3.25;;;2.00;;
19566;SDS011;9930;49.240;8.548;2023-07-31T10:18:26;4.53;;;2.28;;
19566;SDS011;9930;49.240;8.548;2023-07-31T10:20:52;2.38;;;2.17;;
19566;SDS011;9930;49.240;8.548;2023-07-31T10:23:20;2.22;;;2.03;;
19566;SDS011;9930;49.240;8.548;2023-07-31T10:25:50;3.40;;;2.30;;
19566;SDS011;9930;49.240;8.548;2023-07-31T10:28:19;4.13;;;2.17;;
19566;SDS011;9930;49.240;8.548;2023-07-31T10:30:50;2.97;;;2.20;;
19566;SDS011;9930;49.240;8.548;2023-07-31T10:33:17;3.30;;;2.30;;
19566;SDS011;9930;49.240;8.548;2023-07-31T10:35:49;3.50;;;2.15;;
19566;SDS011;9930;49.240;8.548;2023-07-31T10:38:18;2.20;;;2.00;;
19566;SDS011;9930;49.240;8.548;2023-07-31T10:40:46;5.00;;;2.10;;
19566;SDS011;9930;49.240;8.548;2023-07-31T10:43:35;2.88;;;2.22;;
19566;SDS011;9930;49.240;8.548;2023-07-31T10:46:07;3.08;;;2.10;;
19566;SDS011;9930;49.240;8.548;2023-07-31T10:48:40;2.80;;;2.50;;
19566;SDS011;9930;49.240;8.548;2023-07-31T10:51:10;3.08;;;2.55;;
19566;SDS011;9930;49.240;8.548;2023-07-31T10:53:41;3.70;;;2.45;;
19566;SDS011;9930;49.240;8.548;2023-07-31T10:56:10;3.58;;;2.50;;
19566;SDS011;9930;49.240;8.548;2023-07-31T10:58:47;3.00;;;2.50;;
19566;SDS011;9930;49.240;8.548;2023-07-31T11:01:41;3.45;;;2.30;;
19566;SDS011;9930;49.240;8.548;2023-07-31T11:04:28;3.25;;;2.47;;
19566;SDS011;9930;49.240;8.548;2023-07-31T11:06:56;4.35;;;2.28;;
19566;SDS011;9930;49.240;8.548;2023-07-31T11:09:31;2.88;;;2.08;;
19566;SDS011;9930;49.240;8.548;2023-07-31T11:12:01;3.08;;;2.38;;
19566;SDS011;9930;49.240;8.548;2023-07-31T11:14:27;2.67;;;2.03;;
19566;SDS011;9930;49.240;8.548;2023-07-31T11:16:53;3.08;;;2.45;;
19566;SDS011;9930;49.240;8.548;2023-07-31T11:19:22;2.60;;;2.25;;
19566;SDS011;9930;49.240;8.548;2023-07-31T11:21:54;2.38;;;2.20;;
19566;SDS011;9930;49.240;8.548;2023-07-31T11:24:21;3.65;;;2.08;;
19566;SDS011;9930;49.240;8.548;2023-07-31T11:26:53;3.47;;;1.80;;
19566;SDS011;9930;49.240;8.548;2023-07-31T11:29:19;2.60;;;2.30;;
19566;SDS011;9930;49.240;8.548;2023-07-31T11:31:48;3.75;;;2.42;;
19566;SDS011;9930;49.240;8.548;2023-07-31T11:34:16;3.08;;;2.25;;
19566;SDS011;9930;49.240;8.548;2023-07-31T11:36:54;3.20;;;2.42;;
19566;SDS011;9930;49.240;8.548;2023-07-31T11:39:20;2.97;;;2.17;;
19566;SDS011;9930;49.240;8.548;2023-07-31T11:41:47;3.17;;;2.15;;
19566;SDS011;9930;49.240;8.548;2023-07-31T11:44:13;3.50;;;2.40;;
19566;SDS011;9930;49.240;8.548;2023-07-31T11:46:42;3.20;;;2.00;;
19566;SDS011;9930;49.240;8.548;2023-07-31T11:49:10;3.67;;;2.50;;
19566;SDS011;9930;49.240;8.548;2023-07-31T11:51:42;3.90;;;2.38;;
19566;SDS011;9930;49.240;8.548;2023-07-31T11:54:09;5.90;;;2.30;;
19566;SDS011;9930;49.240;8.548;2023-07-31T11:56:39;3.45;;;2.05;;
19566;SDS011;9930;49.240;8.548;2023-07-31T11:59:05;2.50;;;2.20;;
19566;SDS011;9930;49.240;8.548;2023-07-31T12:01:33;2.92;;;2.42;;
19566;SDS011;9930;49.240;8.548;2023-07-31T12:03:59;4.22;;;2.35;;
19566;SDS011;9930;49.240;8.548;2023-07-31T12:06:34;2.72;;;2.20;;
19566;SDS011;9930;49.240;8.548;2023-07-31T12:09:04;2.70;;;2.50;;
19566;SDS011;9930;49.240;8.548;2023-07-31T12:11:42;2.83;;;2.40;;
19566;SDS011;9930;49.240;8.548;2023-07-31T12:14:24;2.50;;;2.30;;
19566;SDS011;9930;49.240;8.548;2023-07-31T12:16:56;3.47;;;2.25;;
19566;SDS011;9930;49.240;8.548;2023-07-31T12:19:29;3.25;;;2.00;;
19566;SDS011;9930;49.240;8.548;2023-07-31T12:21:56;2.78;;;2.03;;
19566;SDS011;9930;49.240;8.548;2023-07-31T12:24:23;3.13;;;2.10;;
19566;SDS011;9930;49.240;8.548;2023-07-31T12:26:49;3.20;;;2.08;;
19566;SDS011;9930;49.240;8.548;2023-07-31T12:29:14;3.55;;;2.35;;
19566;SDS011;9930;49.240;8.548;2023-07-31T12:31:43;2.80;;;2.25;;
19566;SDS011;9930;49.240;8.548;2023-07-31T12:34:16;2.40;;;2.20;;
19566;SDS011;9930;49.240;8.548;2023-07-31T12:36:44;3.25;;;2.33;;
19566;SDS011;9930;49.240;8.548;2023-07-31T12:39:10;2.88;;;2.50;;
19566;SDS011;9930;49.240;8.548;2023-07-31T12:41:41;2.88;;;2.33;;
19566;SDS011;9930;49.240;8.548;2023-07-31T12:44:07;3.08;;;2.20;;
19566;SDS011;9930;49.240;8.548;2023-07-31T12:46:35;3.00;;;2.20;;
19566;SDS011;9930;49.240;8.548;2023-07-31T12:49:08;2.38;;;2.17;;
19566;SDS011;9930;49.240;8.548;2023-07-31T12:51:34;3.53;;;2.47;;
19566;SDS011;9930;49.240;8.548;2023-07-31T12:54:00;3.38;;;2.60;;
19566;SDS011;9930;49.240;8.548;2023-07-31T12:56:27;2.67;;;2.17;;
19566;SDS011;9930;49.240;8.548;2023-07-31T12:58:55;3.35;;;2.15;;
19566;SDS011;9930;49.240;8.548;2023-07-31T13:01:21;3.70;;;2.40;;
19566;SDS011;9930;49.240;8.548;2023-07-31T13:03:50;2.47;;;2.20;;
19566;SDS011;9930;49.240;8.548;2023-07-31T13:06:18;2.30;;;2.10;;
19566;SDS011;9930;49.240;8.548;2023-07-31T13:08:44;3.30;;;2.33;;
19566;SDS011;9930;49.240;8.548;2023-07-31T13:11:10;2.60;;;2.08;;
19566;SDS011;9930;49.240;8.548;2023-07-31T13:13:35;1.95;;;1.75;;
19566;SDS011;9930;49.240;8.548;2023-07-31T13:16:04;2.58;;;2.38;;
19566;SDS011;9930;49.240;8.548;2023-07-31T13:18:32;2.65;;;2.42;;
19566;SDS011;9930;49.240;8.548;2023-07-31T13:21:00;2.50;;;2.30;;
19566;SDS011;9930;49.240;8.548;2023-07-31T13:23:26;2.47;;;2.00;;
19566;SDS011;9930;49.240;8.548;2023-07-31T13:25:54;3.60;;;2.47;;
19566;SDS011;9930;49.240;8.548;2023-07-31T13:28:19;2.40;;;2.05;;
19566;SDS011;9930;49.240;8.548;2023-07-31T13:30:45;3.78;;;2.13;;
19566;SDS011;9930;49.240;8.548;2023-07-31T13:33:11;3.72;;;2.15;;
19566;SDS011;9930;49.240;8.548;2023-07-31T13:35:37;3.33;;;2.10;;
19566;SDS011;9930;49.240;8.548;2023-07-31T13:38:03;2.95;;;2.47;;
19566;SDS011;9930;49.240;8.548;2023-07-31T13:40:28;3.38;;;2.28;;
19566;SDS011;9930;49.240;8.548;2023-07-31T13:42:54;3.15;;;1.90;;
19566;SDS011;9930;49.240;8.548;2023-07-31T13:45:20;3.58;;;2.28;;
19566;SDS011;9930;49.240;8.548;2023-07-31T13:47:53;3.92;;;2.63;;
19566;SDS011;9930;49.240;8.548;2023-07-31T13:50:19;2.17;;;1.98;;
19566;SDS011;9930;49.240;8.548;2023-07-31T13:52:47;3.38;;;2.20;;
19566;SDS011;9930;49.240;8.548;2023-07-31T13:55:15;2.40;;;2.10;;
19566;SDS011;9930;49.240;8.548;2023-07-31T13:57:41;2.92;;;2.25;;
19566;SDS011;9930;49.240;8.548;2023-07-31T14:00:07;3.42;;;2.30;;
19566;SDS011;9930;49.240;8.548;2023-07-31T14:02:33;3.60;;;2.28;;
19566;SDS011;9930;49.240;8.548;2023-07-31T14:04:59;3.33;;;2.17;;
19566;SDS011;9930;49.240;8.548;2023-07-31T14:07:24;3.55;;;2.50;;
19566;SDS011;9930;49.240;8.548;2023-07-31T14:09:50;2.25;;;1.90;;
19566;SDS011;9930;49.240;8.548;2023-07-31T14:12:16;3.05;;;2.55;;
19566;SDS011;9930;49.240;8.548;2023-07-31T14:14:44;2.33;;;2.13;;
19566;SDS011;9930;49.240;8.548;2023-07-31T14:17:12;3.45;;;2.60;;
19566;SDS011;9930;49.240;8.548;2023-07-31T14:19:42;2.63;;;2.20;;
19566;SDS011;9930;49.240;8.548;2023-07-31T14:22:10;2.20;;;2.00;;
19566;SDS011;9930;49.240;8.548;2023-07-31T14:24:35;2.67;;;2.20;;
19566;SDS011;9930;49.240;8.548;2023-07-31T14:27:03;2.95;;;2.00;;
19566;SDS011;9930;49.240;8.548;2023-07-31T14:29:29;3.17;;;2.40;;
19566;SDS011;9930;49.240;8.548;2023-07-31T14:31:58;2.85;;;2.15;;
19566;SDS011;9930;49.240;8.548;2023-07-31T14:34:24;2.30;;;2.10;;
19566;SDS011;9930;49.240;8.548;2023-07-31T14:36:50;5.13;;;2.30;;
19566;SDS011;9930;49.240;8.548;2023-07-31T14:39:16;3.20;;;2.10;;
19566;SDS011;9930;49.240;8.548;2023-07-31T14:41:42;2.90;;;2.22;;
19566;SDS011;9930;49.240;8.548;2023-07-31T14:44:09;3.10;;;2.15;;
19566;SDS011;9930;49.240;8.548;2023-07-31T14:46:37;2.30;;;2.10;;
19566;SDS011;9930;49.240;8.548;2023-07-31T14:49:03;2.97;;;2.10;;
19566;SDS011;9930;49.240;8.548;2023-07-31T14:51:34;2.50;;;2.00;;
19566;SDS011;9930;49.240;8.548;2023-07-31T14:53:59;2.40;;;2.20;;
19566;SDS011;9930;49.240;8.548;2023-07-31T14:56:25;2.95;;;2.17;;
19566;SDS011;9930;49.240;8.548;2023-07-31T14:58:53;2.67;;;2.13;;
19566;SDS011;9930;49.240;8.548;2023-07-31T15:01:19;2.60;;;2.40;;
19566;SDS011;9930;49.240;8.548;2023-07-31T15:03:49;2.60;;;2.40;;
19566;SDS011;9930;49.240;8.548;2023-07-31T15:06:19;3.03;;;2.10;;
19566;SDS011;9930;49.240;8.548;2023-07-31T15:08:47;2.92;;;2.10;;
19566;SDS011;9930;49.240;8.548;2023-07-31T15:11:13;3.28;;;2.10;;
19566;SDS011;9930;49.240;8.548;2023-07-31T15:13:40;2.80;;;2.20;;
19566;SDS011;9930;49.240;8.548;2023-07-31T15:16:06;2.10;;;1.90;;
19566;SDS011;9930;49.240;8.548;2023-07-31T15:18:34;5.22;;;2.33;;
19566;SDS011;9930;49.240;8.548;2023-07-31T15:21:02;2.45;;;2.17;;
19566;SDS011;9930;49.240;8.548;2023-07-31T15:23:29;2.20;;;1.98;;